createdAt,value
2019-02-22T00:02:51.089Z,12.33
2019-02-22T00:05:56.115Z,12.20
2019-02-22T00:09:01.133Z,13.93
2019-02-22T00:12:06.259Z,13.67
2019-02-22T00:15:11.187Z,12.40
2019-02-22T00:18:16.158Z,12.70
2019-02-22T00:21:21.507Z,11.67
2019-02-22T00:24:26.622Z,11.73
2019-02-22T00:27:31.449Z,11.30
2019-02-22T00:30:36.400Z,12.37
2019-02-22T00:33:41.433Z,11.30
2019-02-22T00:36:46.440Z,11.30
2019-02-22T00:39:51.515Z,11.17
2019-02-22T00:42:56.659Z,11.13
2019-02-22T00:46:01.625Z,11.20
2019-02-22T00:49:06.775Z,11.23
2019-02-22T00:52:11.780Z,9.90
2019-02-22T00:55:17.008Z,9.30
2019-02-22T00:58:21.959Z,9.87
2019-02-22T01:01:26.839Z,9.73
2019-02-22T01:04:31.809Z,9.97
2019-02-22T01:07:37.000Z,8.23
2019-02-22T01:10:41.904Z,10.30
2019-02-22T01:13:52.553Z,9.87
2019-02-22T01:16:57.697Z,8.87
2019-02-22T01:20:02.779Z,8.87
2019-02-22T01:23:07.981Z,8.80
2019-02-22T01:26:12.985Z,8.63
2019-02-22T01:29:17.979Z,9.47
2019-02-22T01:32:22.966Z,9.47
2019-02-22T01:35:28.125Z,8.70
2019-02-22T01:38:33.281Z,9.53
2019-02-22T01:41:38.129Z,10.27
2019-02-22T01:44:43.240Z,7.77
2019-02-22T01:47:48.219Z,7.97
2019-02-22T01:50:53.176Z,9.33
2019-02-22T01:53:58.198Z,9.80
2019-02-22T01:57:03.338Z,9.93
2019-02-22T02:00:08.785Z,10.53
2019-02-22T02:03:13.828Z,10.50
2019-02-22T02:06:18.940Z,10.60
2019-02-22T02:09:23.900Z,10.53
2019-02-22T02:12:29.029Z,10.10
2019-02-22T02:15:34.079Z,10.33
2019-02-22T02:18:39.460Z,10.60
2019-02-22T02:21:44.399Z,9.83
2019-02-22T02:24:49.397Z,10.27
2019-02-22T02:27:54.413Z,10.50
2019-02-22T02:30:59.578Z,10.70
2019-02-22T02:34:04.533Z,11.53
2019-02-22T02:37:28.367Z,12.40
2019-02-22T02:40:33.553Z,11.80
2019-02-22T02:43:38.454Z,16.40
2019-02-22T02:46:43.393Z,14.17
2019-02-22T02:49:48.351Z,12.53
2019-02-22T02:52:53.318Z,16.50
2019-02-22T02:55:58.345Z,13.57
2019-02-22T02:59:03.546Z,13.10
2019-02-22T03:02:13.835Z,12.53
2019-02-22T03:05:19.069Z,11.77
2019-02-22T03:08:25.857Z,16.10
2019-02-22T03:11:31.081Z,13.20
2019-02-22T03:14:36.069Z,12.13
2019-02-22T03:17:41.018Z,12.83
2019-02-22T03:20:45.837Z,11.17
2019-02-22T03:23:50.948Z,10.17
2019-02-22T03:26:56.205Z,11.80
2019-02-22T03:30:01.209Z,11.20
2019-02-22T03:33:06.526Z,12.90
2019-02-22T03:36:11.490Z,16.10
2019-02-22T03:39:16.751Z,13.47
2019-02-22T03:42:21.705Z,14.43
2019-02-22T03:45:27.033Z,15.27
2019-02-22T03:48:32.398Z,16.90
2019-02-22T03:51:37.235Z,30.37
2019-02-22T03:54:42.376Z,23.17
2019-02-22T03:57:47.569Z,23.10
2019-02-22T04:00:52.557Z,21.03
2019-02-22T04:03:57.657Z,23.03
2019-02-22T04:07:02.703Z,20.00
2019-02-22T04:10:07.980Z,17.63
2019-02-22T04:13:12.920Z,18.00
2019-02-22T04:16:18.017Z,18.93
2019-02-22T04:19:22.984Z,19.17
2019-02-22T04:22:27.831Z,17.67
2019-02-22T04:25:32.851Z,18.60
2019-02-22T04:28:37.772Z,18.20
2019-02-22T04:31:42.725Z,18.20
2019-02-22T04:34:47.667Z,17.80
2019-02-22T04:37:58.673Z,18.77
2019-02-22T04:41:03.689Z,19.20
2019-02-22T04:44:08.749Z,20.40
2019-02-22T04:47:13.663Z,20.13
2019-02-22T04:50:18.741Z,17.83
2019-02-22T04:53:23.734Z,18.70
2019-02-22T04:56:28.990Z,18.53
2019-02-22T04:59:33.817Z,19.47
2019-02-22T05:02:38.886Z,18.80
2019-02-22T05:05:43.991Z,17.33
2019-02-22T05:08:48.984Z,18.40
2019-02-22T05:11:53.982Z,19.13
2019-02-22T05:15:11.485Z,17.17
2019-02-22T05:18:05.484Z,18.50
2019-02-22T05:21:10.509Z,17.70
2019-02-22T05:24:15.636Z,17.87
2019-02-22T05:27:20.741Z,17.20
2019-02-22T05:30:25.938Z,18.47
2019-02-22T05:33:30.949Z,7.60
2019-02-22T05:36:40.698Z,6.20
2019-02-22T05:39:45.984Z,3.93
2019-02-22T05:42:51.203Z,2.80
2019-02-22T05:45:56.168Z,1.97
2019-02-22T05:49:01.312Z,1.50
2019-02-22T05:52:06.273Z,1.03
2019-02-22T05:55:11.348Z,1.10
2019-02-22T05:58:21.595Z,0.90
2019-02-22T06:01:27.197Z,0.83
2019-02-22T06:04:32.117Z,1.10
2019-02-22T06:07:37.029Z,1.00
2019-02-22T06:10:42.002Z,0.80
2019-02-22T06:13:46.867Z,0.80
2019-02-22T06:16:51.819Z,1.07
2019-02-22T06:19:56.833Z,1.23
2019-02-22T06:23:01.949Z,0.90
2019-02-22T06:26:06.918Z,0.93
2019-02-22T06:29:12.020Z,1.00
2019-02-22T06:32:16.991Z,0.70
2019-02-22T06:35:22.082Z,0.60
2019-02-22T06:38:27.077Z,1.30
2019-02-22T06:41:31.982Z,0.80
2019-02-22T06:44:37.123Z,0.77
2019-02-22T06:47:42.089Z,0.70
2019-02-22T06:50:47.222Z,0.70
2019-02-22T06:53:52.720Z,1.40
2019-02-22T06:56:57.828Z,1.00
2019-02-22T07:00:02.849Z,1.00
2019-02-22T07:03:08.341Z,1.00
2019-02-22T07:06:13.566Z,1.10
2019-02-22T07:09:32.877Z,0.80
2019-02-22T07:12:44.081Z,0.90
2019-02-22T07:15:49.160Z,0.80
2019-02-22T07:18:54.164Z,1.17
2019-02-22T07:21:59.020Z,1.30
2019-02-22T07:25:04.201Z,2.20
2019-02-22T07:28:09.309Z,2.93
2019-02-22T07:31:20.252Z,1.47
2019-02-22T07:34:25.223Z,0.80
2019-02-22T07:37:30.327Z,0.67
2019-02-22T07:40:35.499Z,0.60
2019-02-22T07:43:40.507Z,0.77
2019-02-22T07:46:45.778Z,0.60
2019-02-22T07:49:50.685Z,0.50
2019-02-22T07:52:55.841Z,0.47
2019-02-22T07:56:00.993Z,0.70
2019-02-22T07:59:05.876Z,0.80
2019-02-22T08:02:10.851Z,1.60
2019-02-22T08:05:16.012Z,0.60
2019-02-22T08:08:20.826Z,0.53
2019-02-22T08:11:26.005Z,0.60
2019-02-22T08:14:31.214Z,0.40
2019-02-22T08:17:36.081Z,0.63
2019-02-22T08:20:41.025Z,0.43
2019-02-22T08:23:46.005Z,0.40
2019-02-22T08:26:50.981Z,0.60
2019-02-22T08:29:56.399Z,0.60
2019-02-22T08:33:16.329Z,0.63
2019-02-22T08:36:21.137Z,0.73
2019-02-22T08:39:26.277Z,0.50
2019-02-22T08:42:35.993Z,1.03
2019-02-22T08:45:40.846Z,0.50
2019-02-22T08:48:46.011Z,0.60
2019-02-22T08:51:50.850Z,0.63
2019-02-22T08:54:55.802Z,0.53
2019-02-22T08:58:00.826Z,0.60
2019-02-22T09:01:06.073Z,0.60
2019-02-22T09:04:11.019Z,0.40
2019-02-22T09:07:16.318Z,0.50
2019-02-22T09:10:21.348Z,0.47
2019-02-22T09:13:26.548Z,0.60
2019-02-22T09:16:36.303Z,0.50
2019-02-22T09:19:45.977Z,0.63
2019-02-22T09:22:51.291Z,0.47
2019-02-22T09:25:56.208Z,0.63
2019-02-22T09:29:01.394Z,0.50
2019-02-22T09:32:06.363Z,0.63
2019-02-22T09:35:12.895Z,0.60
2019-02-22T09:38:17.806Z,0.40
2019-02-22T09:41:22.634Z,0.50
2019-02-22T09:44:27.646Z,0.57
2019-02-22T09:47:32.803Z,0.30
2019-02-22T09:50:37.790Z,0.30
2019-02-22T09:53:43.117Z,0.28
2019-02-22T09:56:48.122Z,0.30
2019-02-22T09:59:53.232Z,0.30
2019-02-22T10:02:58.296Z,0.30
2019-02-22T10:06:03.254Z,0.40
2019-02-22T10:09:08.323Z,0.42
2019-02-22T10:12:13.369Z,0.40
2019-02-22T10:15:18.566Z,0.20
2019-02-22T10:18:23.812Z,0.40
2019-02-22T10:21:28.755Z,0.30
2019-02-22T10:24:33.660Z,0.40
2019-02-22T10:27:38.604Z,0.50
2019-02-22T10:30:43.760Z,0.40
2019-02-22T10:33:48.715Z,0.40
2019-02-22T10:36:53.618Z,0.60
2019-02-22T10:39:58.727Z,0.40
2019-02-22T10:43:03.624Z,0.40
2019-02-22T10:46:27.463Z,0.37
2019-02-22T10:49:32.806Z,0.40
2019-02-22T10:52:37.824Z,0.40
2019-02-22T10:55:50.269Z,0.30
2019-02-22T10:58:55.218Z,0.40
2019-02-22T11:02:00.132Z,0.47
2019-02-22T11:05:05.276Z,0.33
2019-02-22T11:08:10.295Z,0.40
2019-02-22T11:11:15.282Z,0.33
2019-02-22T11:14:28.923Z,0.47
2019-02-22T11:17:26.812Z,0.50
2019-02-22T11:20:31.781Z,0.40
2019-02-22T11:23:36.817Z,0.47
2019-02-22T11:26:41.871Z,0.40
2019-02-22T11:29:49.171Z,0.40
2019-02-22T11:32:53.537Z,0.30
2019-02-22T11:35:58.763Z,0.42
2019-02-22T11:39:04.902Z,0.30
2019-02-22T11:42:09.888Z,0.42
2019-02-22T11:45:14.837Z,0.30
2019-02-22T11:48:19.876Z,0.53
2019-02-22T11:51:25.109Z,0.40
2019-02-22T11:54:30.170Z,0.40
2019-02-22T11:57:35.452Z,0.40
2019-02-22T12:00:41.206Z,0.40
2019-02-22T12:03:46.313Z,0.33
2019-02-22T12:06:51.421Z,0.40
2019-02-22T12:09:56.465Z,0.40
2019-02-22T12:13:01.725Z,0.30
2019-02-22T12:16:09.210Z,0.20
2019-02-22T12:19:14.238Z,0.30
2019-02-22T12:22:19.363Z,0.47
2019-02-22T12:25:24.335Z,0.40
2019-02-22T12:28:29.424Z,0.40
2019-02-22T12:31:35.008Z,0.57
2019-02-22T12:34:39.917Z,0.30
2019-02-22T12:37:45.412Z,0.23
2019-02-22T12:40:50.465Z,0.30
2019-02-22T12:43:55.498Z,0.40
2019-02-22T12:47:00.416Z,0.50
2019-02-22T12:50:05.725Z,0.40
2019-02-22T12:53:10.685Z,0.30
2019-02-22T12:56:15.763Z,0.40
2019-02-22T12:59:20.645Z,0.43
2019-02-22T13:02:25.640Z,0.30
2019-02-22T13:05:30.879Z,0.40
2019-02-22T13:08:36.008Z,0.27
2019-02-22T13:11:41.070Z,0.40
2019-02-22T13:15:13.575Z,0.30
2019-02-22T13:18:11.781Z,0.43
2019-02-22T13:21:16.731Z,0.50
2019-02-22T13:24:21.608Z,0.40
2019-02-22T13:27:26.608Z,0.40
2019-02-22T13:30:31.815Z,0.50
2019-02-22T13:33:37.168Z,0.60
2019-02-22T13:36:42.587Z,0.40
2019-02-22T13:39:48.031Z,0.40
2019-02-22T13:42:53.019Z,0.47
2019-02-22T13:45:58.125Z,0.40
2019-02-22T13:49:03.168Z,0.40
2019-02-22T13:52:11.189Z,0.50
2019-02-22T13:55:15.969Z,0.47
2019-02-22T13:58:21.551Z,0.40
2019-02-22T14:01:26.564Z,0.40
2019-02-22T14:04:31.796Z,0.50
2019-02-22T14:07:36.709Z,0.57
2019-02-22T14:10:41.598Z,0.47
2019-02-22T14:13:51.722Z,0.60
2019-02-22T14:16:56.683Z,0.73
2019-02-22T14:20:01.977Z,0.50
2019-02-22T14:23:06.950Z,0.50
2019-02-22T14:26:12.005Z,0.50
2019-02-22T14:29:17.049Z,0.60
2019-02-22T14:32:22.124Z,1.40
2019-02-22T14:35:27.123Z,1.10
2019-02-22T14:38:32.202Z,0.60
2019-02-22T14:41:37.755Z,0.50
2019-02-22T14:44:42.739Z,0.70
2019-02-22T14:47:51.881Z,0.70
2019-02-22T14:50:56.911Z,0.77
2019-02-22T14:54:02.026Z,0.50
2019-02-22T14:57:06.930Z,0.60
2019-02-22T15:00:14.531Z,0.70
2019-02-22T15:03:22.483Z,0.40
2019-02-22T15:06:27.725Z,0.50
2019-02-22T15:09:32.653Z,0.60
2019-02-22T15:12:40.732Z,0.70
2019-02-22T15:16:10.658Z,0.60
2019-02-22T15:19:16.130Z,0.60
2019-02-22T15:22:21.057Z,0.80
2019-02-22T15:25:29.516Z,0.90
2019-02-22T15:28:34.622Z,0.70
2019-02-22T15:31:39.620Z,0.80
2019-02-22T15:34:44.627Z,0.33
2019-02-22T15:37:49.829Z,0.53
2019-02-22T15:40:55.011Z,0.50
2019-02-22T15:44:00.018Z,0.70
2019-02-22T15:47:11.700Z,0.50
2019-02-22T15:50:13.463Z,0.53
2019-02-22T15:53:18.468Z,0.80
2019-02-22T15:56:23.599Z,0.70
2019-02-22T15:59:28.901Z,0.60
2019-02-22T16:02:35.855Z,1.00
2019-02-22T16:05:42.499Z,0.93
2019-02-22T16:08:47.629Z,0.90
2019-02-22T16:11:52.742Z,0.73
2019-02-22T16:14:57.711Z,0.60
2019-02-22T16:18:02.801Z,0.57
2019-02-22T16:21:07.880Z,0.70
2019-02-22T16:24:12.827Z,0.77
2019-02-22T16:27:17.980Z,0.77
2019-02-22T16:30:24.822Z,0.83
2019-02-22T16:33:30.003Z,0.90
2019-02-22T16:36:34.990Z,0.80
2019-02-22T16:39:40.296Z,0.80
2019-02-22T16:42:45.289Z,0.90
2019-02-22T16:45:50.627Z,0.70
2019-02-22T16:48:55.391Z,0.70
2019-02-22T16:52:00.356Z,0.87
2019-02-22T16:55:06.099Z,0.80
2019-02-22T16:58:15.397Z,0.80
2019-02-22T17:01:23.143Z,0.90
2019-02-22T17:04:31.262Z,1.03
2019-02-22T17:07:34.934Z,1.17
2019-02-22T17:10:40.040Z,1.20
2019-02-22T17:13:45.152Z,1.00
2019-02-22T17:16:56.700Z,1.17
2019-02-22T17:20:01.848Z,0.87
2019-02-22T17:23:06.870Z,1.20
2019-02-22T17:26:15.107Z,0.87
2019-02-22T17:29:20.932Z,0.90
2019-02-22T17:32:26.229Z,0.73
2019-02-22T17:35:31.372Z,0.80
2019-02-22T17:38:44.590Z,0.90
2019-02-22T17:41:49.577Z,0.73
2019-02-22T17:44:54.771Z,1.00
2019-02-22T17:47:59.967Z,0.97
2019-02-22T17:51:04.881Z,1.30
2019-02-22T17:54:09.907Z,1.07
2019-02-22T17:57:15.211Z,0.97
2019-02-22T18:00:21.109Z,0.90
2019-02-22T18:03:26.113Z,0.73
2019-02-22T18:06:31.035Z,1.17
2019-02-22T18:09:35.977Z,1.30
2019-02-22T18:12:40.876Z,0.87
2019-02-22T18:15:46.054Z,1.07
2019-02-22T18:18:51.136Z,0.90
2019-02-22T18:21:56.411Z,0.80
2019-02-22T18:25:01.443Z,1.30
2019-02-22T18:28:06.522Z,1.00
2019-02-22T18:31:11.653Z,1.40
2019-02-22T18:34:16.758Z,1.20
2019-02-22T18:37:22.010Z,1.17
2019-02-22T18:40:27.216Z,1.40
2019-02-22T18:43:32.668Z,3.73
2019-02-22T18:46:37.734Z,1.90
2019-02-22T18:49:42.771Z,0.93
2019-02-22T18:52:48.078Z,1.50
2019-02-22T18:55:53.146Z,1.93
2019-02-22T18:58:58.118Z,1.20
2019-02-22T19:02:03.155Z,3.83
2019-02-22T19:05:10.788Z,1.77
2019-02-22T19:08:15.872Z,2.30
2019-02-22T19:11:20.987Z,1.60
2019-02-22T19:14:25.989Z,2.00
2019-02-22T19:17:32.765Z,1.80
2019-02-22T19:20:37.707Z,1.80
2019-02-22T19:23:42.809Z,1.80
2019-02-22T19:26:48.080Z,114.50
2019-02-22T19:29:53.085Z,34.07
2019-02-22T19:32:58.090Z,2.90
2019-02-22T19:36:03.266Z,1.90
2019-02-22T19:39:08.276Z,1.60
2019-02-22T19:42:13.443Z,1.80
2019-02-22T19:45:18.395Z,2.07
2019-02-22T19:48:23.372Z,1.60
2019-02-22T19:51:28.575Z,2.00
2019-02-22T19:54:33.909Z,1.70
2019-02-22T19:57:38.920Z,2.20
2019-02-22T20:00:43.865Z,1.80
2019-02-22T20:03:48.789Z,2.00
2019-02-22T20:06:53.796Z,1.80
2019-02-22T20:09:59.135Z,2.07
2019-02-22T20:13:04.331Z,1.80
2019-02-22T20:16:09.230Z,2.13
2019-02-22T20:19:14.272Z,1.97
2019-02-22T20:22:19.261Z,1.90
2019-02-22T20:25:24.508Z,2.40
2019-02-22T20:28:29.336Z,2.10
2019-02-22T20:31:34.455Z,2.00
2019-02-22T20:34:39.678Z,2.10
2019-02-22T20:37:52.676Z,1.80
2019-02-22T20:40:51.416Z,1.93
2019-02-22T20:43:56.508Z,1.90
2019-02-22T20:47:01.453Z,1.97
2019-02-22T20:50:07.091Z,1.80
2019-02-22T20:53:15.677Z,1.77
2019-02-22T20:56:24.497Z,1.73
2019-02-22T20:59:29.590Z,2.20
2019-02-22T21:02:34.874Z,3.10
2019-02-22T21:05:39.955Z,2.70
2019-02-22T21:08:44.975Z,2.90
2019-02-22T21:11:50.175Z,3.23
2019-02-22T21:14:55.661Z,2.93
2019-02-22T21:18:00.913Z,3.10
2019-02-22T21:21:05.830Z,2.70
2019-02-22T21:24:10.688Z,2.37
2019-02-22T21:27:15.686Z,2.67
2019-02-22T21:30:20.830Z,3.03
2019-02-22T21:33:25.788Z,3.50
2019-02-22T21:36:30.524Z,2.33
2019-02-22T21:39:35.407Z,2.80
2019-02-22T21:42:40.365Z,3.07
2019-02-22T21:45:45.547Z,3.03
2019-02-22T21:48:50.429Z,3.47
2019-02-22T21:51:55.461Z,2.30
2019-02-22T21:55:00.455Z,2.77
2019-02-22T21:58:17.297Z,2.60
2019-02-22T22:01:22.222Z,2.90
2019-02-22T22:04:27.156Z,2.87
2019-02-22T22:07:32.101Z,2.67
2019-02-22T22:10:37.095Z,2.57
2019-02-22T22:13:42.289Z,3.50
2019-02-22T22:16:47.211Z,2.80
2019-02-22T22:19:52.108Z,3.00
2019-02-22T22:22:58.109Z,2.90
2019-02-22T22:26:02.932Z,3.20
2019-02-22T22:29:08.140Z,3.07
2019-02-22T22:32:13.180Z,3.80
2019-02-22T22:35:18.528Z,3.57
2019-02-22T22:38:23.579Z,3.97
2019-02-22T22:41:28.457Z,3.47
2019-02-22T22:44:33.401Z,3.27
2019-02-22T22:47:38.571Z,3.60
2019-02-22T22:50:43.550Z,3.40
2019-02-22T22:53:48.541Z,3.23
2019-02-22T22:56:53.516Z,3.53
2019-02-22T23:00:06.205Z,3.90
2019-02-22T23:03:11.157Z,4.30
2019-02-22T23:06:17.542Z,3.87
2019-02-22T23:09:23.181Z,3.73
2019-02-22T23:12:28.190Z,3.80
2019-02-22T23:15:33.091Z,4.10
2019-02-22T23:18:38.090Z,4.20
2019-02-22T23:21:43.206Z,3.80
2019-02-22T23:24:48.197Z,4.60
2019-02-22T23:28:01.837Z,4.80
2019-02-22T23:31:06.900Z,4.77
2019-02-22T23:34:11.697Z,4.47
2019-02-22T23:37:16.742Z,4.17
2019-02-22T23:40:21.838Z,4.60
2019-02-22T23:43:26.936Z,4.93
2019-02-22T23:46:32.139Z,4.13
2019-02-22T23:49:37.216Z,4.70
2019-02-22T23:52:42.228Z,3.77
2019-02-22T23:55:47.117Z,4.20
2019-02-22T23:58:52.126Z,3.23
